Time;durP1;ratioP1;P1;durP2;ratioP2;P2;SDS_P1;SDS_P2;PMS_P1;PMS_P2;Temp;Humidity;BMP_temperature;BMP_pressure;BME280_temperature;BME280_humidity;BME280_pressure;Samples;Min_cycle;Max_cycle;Signal;HPM_P1;HPM_P2
2022/03/29 00:02:20;;;;;;;10.38;5.03;;;;;;;10.69;31.75;99691.23;1700656;82;21087;-54
2022/03/29 00:04:46;;;;;;;8.43;4.97;;;;;;;10.69;31.68;99690.38;1721404;82;21577;-53
2022/03/29 00:07:13;;;;;;;11.95;4.92;;;;;;;10.67;31.58;99686.57;1713094;82;21087;-54
2022/03/29 00:09:41;;;;;;;10.70;6.10;;;;;;;10.63;31.50;99676.00;1691970;83;21085;-53
2022/03/29 00:12:08;;;;;;;9.10;5.60;;;;;;;10.62;31.54;99674.32;1696546;84;22159;-53
2022/03/29 00:14:34;;;;;;;10.05;5.50;;;;;;;10.59;31.63;99672.81;1700444;83;21063;-51
2022/03/29 00:17:38;;;;;;;11.18;5.67;;;;;;;10.55;31.58;99670.60;1696622;84;21128;-52
2022/03/29 00:20:08;;;;;;;10.98;5.92;;;;;;;10.52;31.54;99669.09;1695606;84;21103;-53
2022/03/29 00:22:35;;;;;;;10.98;5.92;;;;;;;10.46;31.51;99669.64;1696825;84;21068;-53
2022/03/29 00:25:04;;;;;;;11.38;5.85;;;;;;;10.41;31.67;99662.66;1719770;82;21140;-53
2022/03/29 00:27:31;;;;;;;16.77;5.75;;;;;;;10.37;31.65;99665.20;1719868;81;22490;-53
2022/03/29 00:29:58;;;;;;;9.98;5.80;;;;;;;10.34;31.75;99656.27;1719434;82;21030;-53
2022/03/29 00:32:25;;;;;;;9.90;6.15;;;;;;;10.31;31.70;99660.48;1715521;82;21053;-53
2022/03/29 00:34:52;;;;;;;10.72;6.08;;;;;;;10.29;31.63;99673.77;1682632;84;21046;-53
2022/03/29 00:37:19;;;;;;;13.98;7.28;;;;;;;10.28;31.65;99663.39;1692257;84;21894;-53
2022/03/29 00:39:46;;;;;;;11.65;6.35;;;;;;;10.26;31.66;99656.95;1697671;84;21037;-53
2022/03/29 00:42:12;;;;;;;12.50;6.80;;;;;;;10.25;31.65;99655.78;1699575;84;21009;-53
2022/03/29 00:44:40;;;;;;;11.55;6.15;;;;;;;10.22;31.63;99662.98;1689464;84;21020;-53
2022/03/29 00:47:07;;;;;;;12.35;7.30;;;;;;;10.20;31.59;99656.19;1717431;82;21129;-53
2022/03/29 00:49:35;;;;;;;12.70;6.58;;;;;;;10.20;31.55;99657.50;1718199;82;21156;-53
2022/03/29 00:52:04;;;;;;;11.68;6.78;;;;;;;10.18;31.56;99650.23;1688701;83;21056;-53
2022/03/29 00:54:35;;;;;;;14.13;7.40;;;;;;;10.17;31.53;99652.05;1695900;84;20996;-53
2022/03/29 00:57:03;;;;;;;13.78;6.37;;;;;;;10.16;31.46;99639.04;1704540;82;21004;-53
2022/03/29 00:59:30;;;;;;;10.45;6.45;;;;;;;10.14;31.54;99643.61;1731897;80;21185;-53
2022/03/29 01:01:57;;;;;;;12.68;7.33;;;;;;;10.13;31.59;99648.02;1734631;81;21099;-53
2022/03/29 01:06:43;;;;;;;12.95;7.08;;;;;;;10.08;31.64;99635.77;1773552;79;22418;-53
2022/03/29 01:09:11;;;;;;;13.93;7.22;;;;;;;10.04;31.62;99637.84;1750793;81;20947;-54
2022/03/29 01:11:40;;;;;;;12.23;6.25;;;;;;;10.01;31.58;99639.44;1739578;80;20986;-54
2022/03/29 01:14:06;;;;;;;12.70;7.37;;;;;;;10.00;31.64;99632.53;1746102;82;21126;-54
2022/03/29 01:19:22;;;;;;;11.35;6.65;;;;;;;9.98;31.64;99637.57;1736083;82;21018;-51
2022/03/29 01:22:00;;;;;;;12.73;7.15;;;;;;;9.96;31.66;99635.56;1742812;80;21027;-52
2022/03/29 01:24:26;;;;;;;12.25;7.40;;;;;;;9.92;31.72;99633.70;1743534;81;21657;-53
2022/03/29 01:26:59;;;;;;;10.32;6.95;;;;;;;9.92;31.62;99633.70;1742420;82;20987;-53
2022/03/29 01:29:25;;;;;;;17.42;6.87;;;;;;;9.90;31.68;99625.13;1710990;82;21059;-53
2022/03/29 01:31:53;;;;;;;12.82;7.05;;;;;;;9.89;31.67;99626.09;1733809;80;21051;-53
2022/03/29 01:34:20;;;;;;;12.47;7.42;;;;;;;9.89;31.71;99619.52;1745396;81;21133;-53
2022/03/29 01:36:49;;;;;;;14.60;7.17;;;;;;;9.86;31.79;99620.61;1738468;80;21275;-53
2022/03/29 01:39:16;;;;;;;12.93;7.75;;;;;;;9.84;31.86;99605.96;1744875;82;21023;-53
2022/03/29 01:41:43;;;;;;;11.00;6.55;;;;;;;9.82;31.93;99613.98;1742919;80;21128;-53
2022/03/29 01:44:10;;;;;;;11.97;7.08;;;;;;;9.80;31.95;99611.13;1744407;81;21589;-53
2022/03/29 01:46:37;;;;;;;16.52;7.67;;;;;;;9.77;31.99;99611.42;1740581;81;21055;-53
2022/03/29 01:49:05;;;;;;;14.90;6.90;;;;;;;9.73;32.03;99611.33;1741837;81;22100;-53
2022/03/29 01:51:33;;;;;;;13.78;7.37;;;;;;;9.66;32.10;99609.24;1744032;82;21102;-53
2022/03/29 01:54:02;;;;;;;12.25;7.65;;;;;;;9.61;32.16;99614.08;1745510;81;21031;-53
2022/03/29 01:56:31;;;;;;;12.30;7.08;;;;;;;9.55;32.26;99611.16;1722097;81;21007;-53
2022/03/29 01:58:57;;;;;;;14.80;7.50;;;;;;;9.49;32.37;99610.73;1735365;80;21066;-53
2022/03/29 02:01:25;;;;;;;14.50;7.33;;;;;;;9.41;32.50;99605.31;1741142;82;21799;-53
2022/03/29 02:03:52;;;;;;;15.55;8.03;;;;;;;9.35;32.63;99611.13;1744265;81;21078;-53
2022/03/29 02:06:18;;;;;;;15.45;7.95;;;;;;;9.32;32.72;99608.77;1734695;82;21086;-53
2022/03/29 02:08:46;;;;;;;14.98;8.38;;;;;;;9.28;32.77;99603.45;1730074;82;21141;-53
2022/03/29 02:11:13;;;;;;;13.68;8.10;;;;;;;9.23;32.81;99601.22;1711627;80;21579;-53
2022/03/29 02:13:40;;;;;;;15.55;8.15;;;;;;;9.21;32.88;99603.61;1730807;82;21266;-53
2022/03/29 02:16:06;;;;;;;14.23;7.70;;;;;;;9.16;32.97;99599.24;1727347;82;21072;-53
2022/03/29 02:18:33;;;;;;;15.00;8.30;;;;;;;9.11;33.07;99597.86;1723550;82;21032;-53
2022/03/29 02:21:00;;;;;;;16.48;7.47;;;;;;;9.08;33.12;99597.30;1725127;82;21079;-54
2022/03/29 02:23:27;;;;;;;12.75;8.23;;;;;;;9.04;33.24;99592.77;1724192;80;21063;-54
2022/03/29 02:25:54;;;;;;;16.37;8.63;;;;;;;9.00;33.26;99593.19;1724248;82;21147;-53
2022/03/29 02:28:22;;;;;;;11.20;7.40;;;;;;;8.98;33.36;99604.27;1728165;82;21084;-53
2022/03/29 02:30:49;;;;;;;13.35;8.40;;;;;;;8.92;33.44;99592.03;1721965;82;21130;-53
2022/03/29 02:33:16;;;;;;;16.75;8.90;;;;;;;8.89;33.51;99591.01;1729688;82;21554;-53
2022/03/29 02:35:42;;;;;;;13.65;8.55;;;;;;;8.88;33.52;99579.33;1734518;82;21090;-54
2022/03/29 02:38:11;;;;;;;14.18;8.15;;;;;;;8.86;33.59;99585.17;1724600;82;21040;-53
2022/03/29 02:40:38;;;;;;;12.23;8.45;;;;;;;8.83;33.68;99574.96;1730589;82;21059;-53
2022/03/29 02:43:05;;;;;;;12.88;8.20;;;;;;;8.79;33.73;99582.73;1732739;82;21036;-53
2022/03/29 02:45:32;;;;;;;14.13;8.23;;;;;;;8.77;33.77;99580.23;1734629;82;21083;-53
2022/03/29 02:47:59;;;;;;;11.80;8.03;;;;;;;8.76;33.79;99580.36;1716720;80;21038;-53
2022/03/29 02:50:25;;;;;;;15.00;8.80;;;;;;;8.72;33.88;99575.86;1655217;85;21149;-53
2022/03/29 02:52:57;;;;;;;16.27;9.25;;;;;;;8.69;33.91;99576.97;1731158;81;21616;-53
2022/03/29 02:55:27;;;;;;;17.50;9.70;;;;;;;8.67;34.01;99580.67;1736113;82;21127;-53
2022/03/29 02:57:54;;;;;;;12.63;7.83;;;;;;;8.65;34.09;99581.28;1726931;82;21043;-53
2022/03/29 03:00:20;;;;;;;14.35;9.08;;;;;;;8.63;34.13;99574.86;1724223;80;21050;-53
2022/03/29 03:02:50;;;;;;;12.78;9.05;;;;;;;8.63;34.12;99583.21;1718864;82;21803;-53
2022/03/29 03:05:17;;;;;;;15.40;9.05;;;;;;;8.60;34.27;99576.91;1737576;82;21133;-53
2022/03/29 03:07:44;;;;;;;15.25;9.13;;;;;;;8.58;34.30;99584.91;1733394;81;21110;-53
2022/03/29 03:10:13;;;;;;;18.80;9.65;;;;;;;8.59;34.33;99585.27;1732056;81;21062;-53
2022/03/29 03:12:46;;;;;;;18.40;10.48;;;;;;;8.57;34.42;99582.41;1734495;82;21170;-53
2022/03/29 03:15:18;;;;;;;19.90;9.30;;;;;;;8.56;34.40;99580.28;1738291;82;21235;-53
2022/03/29 03:17:45;;;;;;;12.40;8.40;;;;;;;8.57;34.30;99572.74;1733422;82;21590;-53
2022/03/29 03:20:12;;;;;;;13.22;8.78;;;;;;;8.58;34.33;99578.35;1729330;82;21122;-53
2022/03/29 03:22:40;;;;;;;15.75;9.00;;;;;;;8.60;34.44;99583.47;1733064;82;21087;-53
2022/03/29 03:25:08;;;;;;;13.40;8.28;;;;;;;8.59;34.37;99580.02;1725432;82;21587;-53
2022/03/29 03:27:35;;;;;;;13.28;9.50;;;;;;;8.60;34.41;99583.47;1728986;82;21811;-54
2022/03/29 03:30:03;;;;;;;13.48;8.63;;;;;;;8.59;34.45;99590.52;1734408;82;21059;-53
2022/03/29 03:32:31;;;;;;;12.70;8.80;;;;;;;8.58;34.51;99580.16;1727155;82;21536;-53
2022/03/29 03:34:57;;;;;;;13.38;8.08;;;;;;;8.57;34.55;99579.30;1734254;82;21142;-53
2022/03/29 03:37:26;;;;;;;16.02;8.23;;;;;;;8.54;34.63;99576.97;1723534;82;21071;-53
2022/03/29 03:39:53;;;;;;;16.02;8.98;;;;;;;8.54;34.64;99573.85;1729382;82;21147;-54
2022/03/29 03:42:20;;;;;;;14.05;8.43;;;;;;;8.52;34.75;99573.61;1729932;80;21505;-53
2022/03/29 03:44:48;;;;;;;17.57;8.43;;;;;;;8.52;34.76;99573.16;1715594;80;21548;-53
2022/03/29 03:47:14;;;;;;;14.45;8.73;;;;;;;8.52;34.82;99564.44;1729362;80;21047;-54
2022/03/29 03:49:41;;;;;;;13.55;8.35;;;;;;;8.51;34.91;99559.69;1738656;82;21447;-53
2022/03/29 03:52:09;;;;;;;14.40;8.50;;;;;;;8.51;34.87;99558.86;1726511;80;21158;-53
2022/03/29 03:54:36;;;;;;;14.30;8.43;;;;;;;8.53;35.04;99564.31;1738823;80;21086;-53
2022/03/29 03:57:04;;;;;;;14.30;8.45;;;;;;;8.54;35.07;99562.54;1732597;82;21074;-53
2022/03/29 03:59:32;;;;;;;12.30;8.23;;;;;;;8.55;35.16;99565.49;1732171;82;21047;-53
2022/03/29 04:02:00;;;;;;;14.35;7.47;;;;;;;8.54;35.10;99554.19;1723242;80;21552;-53
2022/03/29 04:04:26;;;;;;;15.38;8.08;;;;;;;8.57;35.19;99562.25;1735433;82;21255;-53
2022/03/29 04:06:52;;;;;;;16.02;8.20;;;;;;;8.59;35.28;99558.19;1733277;80;21098;-53
2022/03/29 04:09:19;;;;;;;17.02;8.40;;;;;;;8.61;35.16;99562.82;1719379;82;21102;-53
2022/03/29 04:11:46;;;;;;;15.05;8.43;;;;;;;8.62;35.30;99561.38;1738368;80;21071;-53
2022/03/29 04:14:13;;;;;;;13.65;8.30;;;;;;;8.63;35.31;99564.86;1731092;81;21705;-53
2022/03/29 04:16:40;;;;;;;12.25;8.28;;;;;;;8.65;35.33;99556.38;1727090;82;21163;-53
2022/03/29 04:19:07;;;;;;;15.78;8.58;;;;;;;8.68;35.40;99553.00;1736442;82;21600;-53
2022/03/29 04:21:33;;;;;;;11.75;8.18;;;;;;;8.71;35.42;99555.37;1734448;81;21102;-53
2022/03/29 04:24:00;;;;;;;13.38;7.97;;;;;;;8.73;35.46;99567.05;1739226;82;22064;-53
2022/03/29 04:26:29;;;;;;;19.17;7.87;;;;;;;8.75;35.49;99553.31;1734269;80;21034;-54
2022/03/29 04:28:56;;;;;;;15.20;8.33;;;;;;;8.78;35.57;99556.98;1735260;82;21548;-53
2022/03/29 04:31:22;;;;;;;13.30;7.92;;;;;;;8.81;35.50;99563.74;1739428;82;21101;-53
2022/03/29 04:33:49;;;;;;;16.07;8.58;;;;;;;8.84;35.62;99570.05;1733213;82;21034;-53
2022/03/29 04:36:16;;;;;;;14.70;7.95;;;;;;;8.88;35.61;99568.84;1742625;82;21024;-53
2022/03/29 04:38:45;;;;;;;11.75;7.40;;;;;;;8.90;35.75;99562.97;1736382;82;21003;-53
2022/03/29 04:41:12;;;;;;;11.22;6.90;;;;;;;8.94;35.74;99563.04;1722720;81;21047;-53
2022/03/29 04:43:39;;;;;;;13.85;7.60;;;;;;;8.97;35.66;99569.34;1723091;82;21042;-53
2022/03/29 04:46:07;;;;;;;14.43;7.95;;;;;;;9.02;35.71;99565.02;1731720;82;21631;-53
2022/03/29 04:48:34;;;;;;;13.55;8.10;;;;;;;9.06;35.76;99580.83;1740522;82;21058;-55
2022/03/29 04:51:02;;;;;;;12.45;7.35;;;;;;;9.13;35.75;99570.62;1736628;82;21031;-54
2022/03/29 04:53:28;;;;;;;13.25;7.78;;;;;;;9.17;35.84;99581.23;1733738;82;21155;-52
2022/03/29 04:55:56;;;;;;;13.90;8.75;;;;;;;9.22;35.83;99577.23;1736054;80;21058;-52
2022/03/29 04:58:26;;;;;;;17.00;8.35;;;;;;;9.27;35.92;99571.59;1728544;82;21125;-52
2022/03/29 05:00:53;;;;;;;14.80;7.95;;;;;;;9.34;35.93;99571.88;1729181;81;21102;-52
2022/03/29 05:03:20;;;;;;;12.73;8.23;;;;;;;9.39;35.98;99578.38;1722679;82;21110;-53
2022/03/29 05:05:47;;;;;;;11.18;7.22;;;;;;;9.43;35.95;99577.62;1739432;82;21159;-52
2022/03/29 05:08:14;;;;;;;10.48;7.12;;;;;;;9.49;35.98;99581.84;1728946;82;21094;-52
2022/03/29 05:10:42;;;;;;;15.10;8.68;;;;;;;9.56;35.98;99583.94;1731642;80;21531;-53
2022/03/29 05:13:09;;;;;;;15.60;7.65;;;;;;;9.60;35.93;99576.97;1737190;80;21106;-53
2022/03/29 05:15:37;;;;;;;15.38;8.55;;;;;;;9.68;35.89;99581.53;1730805;82;21042;-52
2022/03/29 05:18:05;;;;;;;14.95;8.13;;;;;;;9.73;35.90;99572.75;1729963;82;21817;-53
2022/03/29 05:20:32;;;;;;;14.75;8.88;;;;;;;9.81;36.01;99578.64;1723970;82;21087;-53
2022/03/29 05:23:01;;;;;;;16.60;8.48;;;;;;;9.88;35.94;99577.61;1730330;82;21015;-53
2022/03/29 05:25:27;;;;;;;14.38;7.90;;;;;;;9.94;35.93;99563.92;1737519;82;21637;-53
2022/03/29 05:27:59;;;;;;;15.55;8.30;;;;;;;10.00;35.89;99568.61;1728979;81;21021;-53
2022/03/29 05:30:24;;;;;;;13.80;6.90;;;;;;;10.08;36.02;99571.87;1702125;83;22866;-53
2022/03/29 05:32:57;;;;;;;10.38;6.87;;;;;;;10.18;35.98;99577.94;1673207;83;21063;-53
2022/03/29 05:35:20;;;;;;;13.15;7.28;;;;;;;10.29;35.92;99567.74;1731184;82;22652;-53
2022/03/29 05:37:46;;;;;;;17.12;7.55;;;;;;;10.41;35.90;99567.98;1722482;82;21005;-54
2022/03/29 05:40:13;;;;;;;17.42;7.40;;;;;;;10.57;35.74;99573.95;1721406;82;21084;-53
2022/03/29 05:42:41;;;;;;;12.15;7.33;;;;;;;10.68;35.58;99583.00;1725263;81;21722;-53
2022/03/29 05:45:09;;;;;;;13.05;7.72;;;;;;;10.80;35.69;99559.97;1724031;82;21067;-53
2022/03/29 05:50:23;;;;;;;16.47;8.20;;;;;;;11.01;35.74;99565.02;1729318;82;21138;-52
2022/03/29 05:52:50;;;;;;;11.57;7.58;;;;;;;11.09;35.80;99566.91;1723124;82;21228;-53
2022/03/29 05:55:17;;;;;;;13.32;8.23;;;;;;;11.19;35.81;99558.95;1733243;81;21142;-53
2022/03/29 05:57:44;;;;;;;14.45;7.75;;;;;;;11.27;35.78;99574.36;1733100;81;21071;-52
2022/03/29 06:00:12;;;;;;;13.88;7.42;;;;;;;11.36;35.86;99571.83;1724961;82;21088;-53
2022/03/29 06:02:45;;;;;;;15.10;7.87;;;;;;;11.41;35.83;99557.72;1732634;82;21090;-53
2022/03/29 06:05:11;;;;;;;11.95;7.28;;;;;;;11.49;35.91;99556.49;1735917;82;21082;-53
2022/03/29 06:07:38;;;;;;;12.88;7.05;;;;;;;11.56;35.77;99556.23;1733716;80;21108;-53
2022/03/29 06:10:07;;;;;;;14.00;7.78;;;;;;;11.63;35.84;99566.53;1740207;82;21035;-53
2022/03/29 06:12:38;;;;;;;11.45;8.33;;;;;;;11.73;35.84;99552.44;1719084;81;21124;-53
2022/03/29 06:15:08;;;;;;;13.88;7.80;;;;;;;11.81;35.54;99559.92;1740424;82;21094;-53
2022/03/29 06:17:35;;;;;;;13.88;7.37;;;;;;;11.88;35.51;99546.50;1736215;81;21090;-53
2022/03/29 06:20:09;;;;;;;11.40;7.60;;;;;;;11.95;35.55;99554.62;1730031;82;21144;-52
2022/03/29 06:22:43;;;;;;;13.20;7.92;;;;;;;12.04;35.58;99559.50;1732534;82;21020;-53
2022/03/29 06:25:11;;;;;;;10.95;6.80;;;;;;;12.13;35.51;99561.70;1730218;82;21035;-53
2022/03/29 06:27:38;;;;;;;13.53;7.60;;;;;;;12.23;35.44;99566.40;1729101;80;21623;-53
2022/03/29 06:30:06;;;;;;;13.85;7.00;;;;;;;12.30;35.42;99551.61;1728215;81;21106;-53
2022/03/29 06:32:35;;;;;;;13.15;7.03;;;;;;;12.37;35.47;99553.98;1723321;80;21561;-53
2022/03/29 06:35:01;;;;;;;11.55;6.87;;;;;;;12.48;35.69;99547.61;1708956;82;21095;-53
2022/03/29 06:37:29;;;;;;;18.25;8.20;;;;;;;12.58;35.69;99543.55;1729037;81;21008;-53
2022/03/29 06:39:56;;;;;;;13.55;6.78;;;;;;;12.70;35.59;99553.34;1726664;82;21706;-53
2022/03/29 06:42:22;;;;;;;13.88;7.08;;;;;;;12.80;35.40;99544.81;1720586;82;21190;-53
2022/03/29 06:44:49;;;;;;;13.30;6.90;;;;;;;12.88;35.35;99538.25;1727484;82;22107;-53
2022/03/29 06:47:17;;;;;;;12.35;6.90;;;;;;;12.96;35.17;99548.00;1724513;82;21749;-53
2022/03/29 06:49:43;;;;;;;12.73;6.75;;;;;;;12.99;35.20;99538.45;1722271;82;21048;-53
2022/03/29 06:52:11;;;;;;;13.83;6.72;;;;;;;13.01;35.19;99545.72;1727639;82;21091;-53
2022/03/29 06:54:38;;;;;;;11.28;6.30;;;;;;;13.04;35.14;99533.52;1719832;82;21541;-53
2022/03/29 06:57:06;;;;;;;13.60;6.45;;;;;;;13.08;35.21;99530.06;1725138;82;21975;-53
2022/03/29 06:59:33;;;;;;;9.95;6.20;;;;;;;13.10;35.29;99525.47;1719391;82;21067;-53
2022/03/29 07:02:00;;;;;;;13.28;6.05;;;;;;;13.12;35.06;99534.88;1722300;82;21604;-53
2022/03/29 07:04:27;;;;;;;14.00;5.12;;;;;;;13.11;35.21;99535.87;1716771;82;21554;-53
2022/03/29 07:06:54;;;;;;;12.28;6.25;;;;;;;13.11;35.43;99531.91;1736150;82;21074;-53
2022/03/29 07:12:08;;;;;;;11.03;5.67;;;;;;;13.23;35.58;99523.67;1734828;80;21056;-53
2022/03/29 07:14:34;;;;;;;10.63;5.25;;;;;;;13.33;35.52;99517.31;1733022;82;21109;-53
2022/03/29 07:17:01;;;;;;;9.30;5.03;;;;;;;13.44;35.28;99518.80;1724519;81;21042;-52
2022/03/29 07:19:28;;;;;;;10.35;5.65;;;;;;;13.53;35.28;99513.87;1735330;82;21126;-52
2022/03/29 07:21:56;;;;;;;10.95;5.10;;;;;;;13.66;35.40;99516.52;1729640;82;21232;-52
2022/03/29 07:24:22;;;;;;;12.35;6.12;;;;;;;13.80;35.15;99514.56;1729411;80;21500;-53
2022/03/29 07:26:51;;;;;;;9.30;5.08;;;;;;;13.90;35.22;99511.25;1725351;80;21054;-52
2022/03/29 07:29:18;;;;;;;9.53;5.17;;;;;;;14.01;34.97;99510.08;1733015;82;21034;-53
2022/03/29 07:31:45;;;;;;;9.48;5.35;;;;;;;14.11;35.03;99508.08;1736821;82;21035;-52
2022/03/29 07:34:11;;;;;;;12.88;5.97;;;;;;;14.20;34.79;99503.59;1726180;82;21143;-53
2022/03/29 07:36:38;;;;;;;10.20;5.08;;;;;;;14.27;34.65;99507.25;1736914;82;21051;-52
2022/03/29 07:39:04;;;;;;;8.95;4.87;;;;;;;14.34;34.54;99506.55;1729580;82;21070;-53
2022/03/29 07:41:33;;;;;;;10.58;4.53;;;;;;;14.41;34.68;99517.63;1736783;80;21076;-53
2022/03/29 07:44:00;;;;;;;9.10;4.37;;;;;;;14.52;34.40;99508.49;1730719;81;21553;-53
2022/03/29 07:46:26;;;;;;;10.90;4.85;;;;;;;14.61;34.21;99504.05;1737240;82;21256;-53
2022/03/29 07:48:53;;;;;;;16.05;5.22;;;;;;;14.69;34.11;99488.11;1738279;80;21035;-53
2022/03/29 07:51:20;;;;;;;11.12;4.92;;;;;;;14.77;33.92;99497.35;1736777;82;21090;-52
2022/03/29 07:53:47;;;;;;;13.70;5.05;;;;;;;14.87;34.04;99491.85;1741270;82;21563;-53
2022/03/29 07:56:14;;;;;;;10.98;4.80;;;;;;;15.01;34.00;99490.29;1734747;82;21092;-53
2022/03/29 07:58:41;;;;;;;8.83;4.45;;;;;;;15.17;34.04;99488.89;1724611;80;21108;-52
2022/03/29 08:01:08;;;;;;;11.85;5.00;;;;;;;15.35;33.51;99490.45;1722313;82;21662;-53
2022/03/29 08:03:35;;;;;;;7.67;4.17;;;;;;;15.48;33.44;99487.20;1721163;82;21059;-52
2022/03/29 08:06:02;;;;;;;8.63;4.42;;;;;;;15.54;33.26;99483.85;1735797;82;21110;-52
2022/03/29 08:08:32;;;;;;;9.15;4.70;;;;;;;15.56;33.30;99487.95;1719390;82;21004;-51
2022/03/29 08:10:58;;;;;;;9.80;5.15;;;;;;;15.61;33.37;99515.28;1721067;81;21835;-52
2022/03/29 08:13:27;;;;;;;7.90;4.72;;;;;;;15.64;33.48;99476.48;1719733;82;21497;-52
2022/03/29 08:15:57;;;;;;;10.00;4.33;;;;;;;15.71;33.30;99480.57;1725550;82;22160;-52
2022/03/29 08:18:26;;;;;;;10.58;4.67;;;;;;;15.78;33.64;99472.24;1723446;81;21035;-53
2022/03/29 08:20:52;;;;;;;10.10;4.05;;;;;;;15.88;33.37;99501.19;1696603;84;21500;-53
2022/03/29 08:23:19;;;;;;;8.63;4.05;;;;;;;15.94;33.28;99489.86;1695177;83;21244;-54
2022/03/29 08:25:46;;;;;;;8.48;4.47;;;;;;;15.97;33.34;99472.27;1720153;82;21003;-53
2022/03/29 08:28:14;;;;;;;10.60;5.08;;;;;;;15.98;33.04;99460.12;1724601;82;21039;-53
2022/03/29 08:30:42;;;;;;;12.50;4.95;;;;;;;16.00;33.58;99455.95;1723125;80;21107;-53
2022/03/29 08:33:09;;;;;;;11.03;4.60;;;;;;;16.03;33.36;99466.22;1723126;81;21099;-53
2022/03/29 08:35:39;;;;;;;9.78;5.20;;;;;;;16.02;33.39;99448.67;1723740;82;21135;-53
2022/03/29 08:38:06;;;;;;;9.85;4.80;;;;;;;16.00;33.69;99448.00;1722203;82;21067;-53
2022/03/29 08:40:33;;;;;;;9.88;4.83;;;;;;;16.01;33.94;99448.33;1719049;80;21026;-53
2022/03/29 08:43:01;;;;;;;17.70;4.72;;;;;;;16.07;33.96;99448.95;1727311;80;21031;-53
2022/03/29 08:45:31;;;;;;;9.95;4.30;;;;;;;16.13;33.89;99448.71;1717791;80;21082;-53
2022/03/29 08:47:59;;;;;;;11.00;4.22;;;;;;;16.17;33.91;99435.38;1722022;80;21906;-53
2022/03/29 08:50:30;;;;;;;9.85;4.60;;;;;;;16.23;34.20;99441.30;1721254;82;21445;-54
2022/03/29 08:52:57;;;;;;;11.00;4.92;;;;;;;16.31;34.05;99429.78;1715214;82;21549;-53
2022/03/29 08:55:23;;;;;;;10.32;4.80;;;;;;;16.40;34.27;99432.64;1721321;82;21106;-53
2022/03/29 08:57:54;;;;;;;10.23;4.50;;;;;;;16.53;34.21;99424.85;1722284;82;21012;-53
2022/03/29 09:00:19;;;;;;;10.68;4.85;;;;;;;16.63;34.25;99411.80;1720669;82;22045;-53
2022/03/29 09:02:46;;;;;;;12.85;4.92;;;;;;;16.74;34.00;99427.75;1722048;82;21067;-53
2022/03/29 09:05:16;;;;;;;9.68;4.45;;;;;;;16.79;34.10;99408.91;1729381;82;21029;-54
2022/03/29 09:07:52;;;;;;;7.95;4.17;;;;;;;16.84;33.96;99409.69;1728009;80;21603;-54
2022/03/29 09:10:24;;;;;;;13.15;4.95;;;;;;;16.92;33.96;99411.45;1733674;82;21922;-51
2022/03/29 09:12:52;;;;;;;10.03;5.20;;;;;;;16.99;33.78;99399.05;1724582;80;22180;-53
2022/03/29 09:15:18;;;;;;;9.60;4.72;;;;;;;17.07;33.83;99401.59;1732628;82;21024;-52
2022/03/29 09:17:47;;;;;;;8.13;4.87;;;;;;;17.14;33.87;99397.16;1708522;82;21540;-53
2022/03/29 09:20:21;;;;;;;7.40;4.40;;;;;;;17.22;33.88;99388.23;1735566;82;21071;-53
2022/03/29 09:22:51;;;;;;;11.30;4.35;;;;;;;17.32;33.69;99382.09;1730719;82;21071;-53
2022/03/29 09:25:34;;;;;;;9.63;4.05;;;;;;;17.42;33.83;99391.08;1717287;82;21311;-54
2022/03/29 09:28:13;;;;;;;10.43;4.83;;;;;;;17.51;33.69;99399.22;1721459;82;21106;-52
2022/03/29 09:30:46;;;;;;;9.85;4.75;;;;;;;17.54;33.77;99375.42;1729097;82;21062;-54
2022/03/29 09:33:16;;;;;;;9.48;4.65;;;;;;;17.52;34.08;99382.26;1726264;82;21106;-54
2022/03/29 09:35:58;;;;;;;10.72;4.75;;;;;;;17.51;33.97;99364.64;1737344;81;21050;-53
2022/03/29 09:38:36;;;;;;;8.28;4.05;;;;;;;17.50;34.12;99377.65;1718037;80;21238;-52
2022/03/29 09:41:03;;;;;;;11.03;3.87;;;;;;;17.53;34.17;99381.22;1739176;80;21052;-53
2022/03/29 09:43:41;;;;;;;8.38;3.65;;;;;;;17.55;34.18;99354.44;1721247;80;21054;-53
2022/03/29 09:46:08;;;;;;;8.08;3.98;;;;;;;17.53;34.23;99363.94;1737472;82;21069;-54
2022/03/29 09:48:40;;;;;;;8.43;4.50;;;;;;;17.55;34.39;99352.63;1738708;82;20995;-53
2022/03/29 09:51:14;;;;;;;8.43;3.70;;;;;;;17.60;34.32;99354.19;1734463;82;22231;-52
2022/03/29 09:53:51;;;;;;;7.65;4.00;;;;;;;17.70;34.19;99333.06;1731979;80;21050;-53
2022/03/29 09:56:28;;;;;;;7.45;4.12;;;;;;;17.78;34.21;99335.05;1739423;81;21115;-53
2022/03/29 09:59:09;;;;;;;7.92;3.60;;;;;;;17.90;33.85;99309.27;1725847;81;21090;-53
2022/03/29 10:01:54;;;;;;;7.30;3.83;;;;;;;17.99;33.75;99308.91;1741478;82;21054;-53
2022/03/29 10:04:23;;;;;;;7.62;4.22;;;;;;;18.11;33.71;99307.02;1737205;81;21113;-54
2022/03/29 10:06:58;;;;;;;7.35;3.55;;;;;;;18.24;33.69;99310.23;1729321;82;21063;-53
2022/03/29 10:09:32;;;;;;;6.97;3.25;;;;;;;18.35;33.48;99314.99;1730466;82;21056;-53
2022/03/29 10:12:04;;;;;;;7.42;3.87;;;;;;;18.45;33.48;99334.08;1739971;80;21431;-53
2022/03/29 10:14:38;;;;;;;7.80;4.00;;;;;;;18.54;33.08;99306.74;1731320;82;21088;-53
2022/03/29 10:17:06;;;;;;;9.08;3.98;;;;;;;18.58;32.82;99297.34;1735282;80;21220;-53
2022/03/29 10:19:35;;;;;;;10.20;3.95;;;;;;;18.64;33.00;99295.19;1736501;80;21061;-54
2022/03/29 10:22:03;;;;;;;12.73;4.62;;;;;;;18.78;33.01;99314.70;1732676;82;21082;-53
2022/03/29 10:24:30;;;;;;;7.62;4.17;;;;;;;18.91;32.33;99298.77;1730226;82;21476;-53
2022/03/29 10:27:00;;;;;;;9.60;4.22;;;;;;;19.01;32.15;99277.53;1748413;82;21102;-53
2022/03/29 10:29:27;;;;;;;8.05;4.47;;;;;;;19.04;31.63;99311.78;1730281;82;21138;-53
2022/03/29 10:32:01;;;;;;;9.40;4.10;;;;;;;19.04;31.63;99285.13;1735033;81;21054;-53
2022/03/29 10:34:39;;;;;;;12.63;4.70;;;;;;;19.03;32.05;99289.64;1724337;80;21129;-53
2022/03/29 10:37:14;;;;;;;7.75;4.45;;;;;;;19.05;31.52;99279.59;1747228;82;21034;-53
2022/03/29 10:39:53;;;;;;;;;;;;;;;18.99;31.77;99271.59;1749004;80;21042;-52
2022/03/29 10:42:43;;;;;;;7.45;4.05;;;;;;;18.89;31.87;99276.80;1742752;82;21079;-52
2022/03/29 10:45:24;;;;;;;10.50;4.47;;;;;;;18.75;32.15;99276.47;1731782;81;21093;-52
2022/03/29 10:48:02;;;;;;;9.78;4.20;;;;;;;18.64;31.79;99270.39;1720363;83;21058;-53
2022/03/29 10:50:53;;;;;;;9.03;4.65;;;;;;;18.53;32.02;99269.97;1732997;82;21040;-52
2022/03/29 10:53:35;;;;;;;8.30;4.33;;;;;;;18.46;32.15;99262.97;1731396;82;21071;-54
2022/03/29 10:56:16;;;;;;;7.40;4.33;;;;;;;18.44;32.44;99251.70;1735677;82;21213;-53
2022/03/29 10:59:08;;;;;;;9.05;4.20;;;;;;;18.45;32.36;99245.38;1733378;80;21058;-54
2022/03/29 11:01:37;;;;;;;9.53;4.60;;;;;;;18.50;32.55;99245.06;1741169;82;21035;-53
2022/03/29 11:04:23;;;;;;;8.58;4.80;;;;;;;18.59;32.51;99238.22;1736353;80;21050;-53
2022/03/29 11:07:11;;;;;;;8.90;4.97;;;;;;;18.68;31.96;99243.15;1735640;82;21018;-52
2022/03/29 11:09:38;;;;;;;9.45;5.42;;;;;;;18.77;31.28;99227.78;1730418;82;21170;-54
2022/03/29 11:12:09;;;;;;;9.88;6.53;;;;;;;18.82;30.79;99221.32;1734255;82;21048;-54
2022/03/29 11:14:38;;;;;;;10.35;5.25;;;;;;;18.84;30.67;99231.28;1708399;82;21052;-53
2022/03/29 11:17:11;;;;;;;10.93;5.35;;;;;;;18.86;30.59;99219.09;1732568;82;21055;-53
2022/03/29 11:19:44;;;;;;;10.38;4.42;;;;;;;18.85;30.46;99205.48;1722852;82;21485;-53
2022/03/29 11:22:36;;;;;;;10.35;5.45;;;;;;;18.83;29.95;99224.34;1735898;82;21286;-52
2022/03/29 11:25:14;;;;;;;9.28;5.40;;;;;;;18.79;29.92;99204.92;1720805;82;21103;-53
2022/03/29 11:27:41;;;;;;;12.70;5.10;;;;;;;18.71;29.64;99236.09;1726155;82;21643;-53
2022/03/29 11:30:12;;;;;;;10.88;5.40;;;;;;;18.62;29.71;99207.17;1728109;82;21026;-53
2022/03/29 11:32:43;;;;;;;18.42;7.75;;;;;;;18.55;29.75;99215.97;1670340;84;21770;-52
2022/03/29 11:35:15;;;;;;;23.32;10.08;;;;;;;18.43;32.86;99335.31;1665508;84;21122;-53
2022/03/29 11:37:45;;;;;;;27.80;11.35;;;;;;;18.09;36.81;99310.37;1661897;85;21071;-53
2022/03/29 11:40:14;;;;;;;15.63;9.58;;;;;;;17.42;42.23;99325.41;1718692;82;21103;-52
2022/03/29 11:42:53;;;;;;;19.07;10.32;;;;;;;16.64;44.73;99345.23;1724059;82;21075;-52
2022/03/29 11:45:23;;;;;;;14.95;10.20;;;;;;;16.01;46.75;99343.53;1724219;82;21063;-53
2022/03/29 11:47:57;;;;;;;19.40;11.38;;;;;;;15.53;47.74;99350.47;1716077;81;21118;-52
2022/03/29 11:50:35;;;;;;;22.62;13.35;;;;;;;15.22;48.79;99351.89;1722439;82;21059;-53